sensor_id;sensor_type;location;lat;lon;timestamp;P1;durP1;ratioP1;P2;durP2;ratioP2
37267;SDS011;23154;52.542;13.362;2023-05-29T00:00:40;16.73;;;8.57;;
37267;SDS011;23154;52.542;13.362;2023-05-29T00:03:07;18.48;;;8.57;;
37267;SDS011;23154;52.542;13.362;2023-05-29T00:05:34;20.10;;;8.15;;
37267;SDS011;23154;52.542;13.362;2023-05-29T00:08:00;17.50;;;8.38;;
37267;SDS011;23154;52.542;13.362;2023-05-29T00:10:27;17.70;;;8.50;;
37267;SDS011;23154;52.542;13.362;2023-05-29T00:12:56;16.92;;;8.80;;
37267;SDS011;23154;52.542;13.362;2023-05-29T00:15:22;15.77;;;8.73;;
37267;SDS011;23154;52.542;13.362;2023-05-29T00:17:48;16.23;;;8.85;;
37267;SDS011;23154;52.542;13.362;2023-05-29T00:20:14;18.02;;;9.07;;
37267;SDS011;23154;52.542;13.362;2023-05-29T00:22:41;17.33;;;8.30;;
37267;SDS011;23154;52.542;13.362;2023-05-29T00:25:07;18.85;;;8.45;;
37267;SDS011;23154;52.542;13.362;2023-05-29T00:27:34;17.73;;;8.93;;
37267;SDS011;23154;52.542;13.362;2023-05-29T00:30:00;19.98;;;8.90;;
37267;SDS011;23154;52.542;13.362;2023-05-29T00:32:27;16.40;;;9.35;;
37267;SDS011;23154;52.542;13.362;2023-05-29T00:34:53;18.50;;;8.75;;
37267;SDS011;23154;52.542;13.362;2023-05-29T00:37:19;14.25;;;7.97;;
37267;SDS011;23154;52.542;13.362;2023-05-29T00:39:48;16.13;;;8.43;;
37267;SDS011;23154;52.542;13.362;2023-05-29T00:42:14;16.10;;;8.35;;
37267;SDS011;23154;52.542;13.362;2023-05-29T00:44:40;16.85;;;8.50;;
37267;SDS011;23154;52.542;13.362;2023-05-29T00:47:06;15.60;;;8.40;;
37267;SDS011;23154;52.542;13.362;2023-05-29T00:49:33;15.88;;;8.52;;
37267;SDS011;23154;52.542;13.362;2023-05-29T00:52:00;14.75;;;8.55;;
37267;SDS011;23154;52.542;13.362;2023-05-29T00:54:26;19.00;;;9.00;;
37267;SDS011;23154;52.542;13.362;2023-05-29T00:56:54;14.90;;;8.45;;
37267;SDS011;23154;52.542;13.362;2023-05-29T00:59:22;17.50;;;8.80;;
37267;SDS011;23154;52.542;13.362;2023-05-29T01:01:49;15.57;;;8.80;;
37267;SDS011;23154;52.542;13.362;2023-05-29T01:04:19;17.67;;;8.93;;
37267;SDS011;23154;52.542;13.362;2023-05-29T01:06:46;15.13;;;8.40;;
37267;SDS011;23154;52.542;13.362;2023-05-29T01:09:12;18.55;;;8.52;;
37267;SDS011;23154;52.542;13.362;2023-05-29T01:11:42;18.95;;;8.90;;
37267;SDS011;23154;52.542;13.362;2023-05-29T01:14:14;18.27;;;8.43;;
37267;SDS011;23154;52.542;13.362;2023-05-29T01:16:51;19.23;;;8.80;;
37267;SDS011;23154;52.542;13.362;2023-05-29T01:19:32;17.67;;;8.43;;
37267;SDS011;23154;52.542;13.362;2023-05-29T01:22:12;17.48;;;8.68;;
37267;SDS011;23154;52.542;13.362;2023-05-29T01:27:17;16.00;;;7.70;;
37267;SDS011;23154;52.542;13.362;2023-05-29T01:29:45;15.25;;;7.50;;
37267;SDS011;23154;52.542;13.362;2023-05-29T01:32:13;17.05;;;8.02;;
37267;SDS011;23154;52.542;13.362;2023-05-29T01:34:39;13.85;;;7.90;;
37267;SDS011;23154;52.542;13.362;2023-05-29T01:37:05;17.00;;;7.80;;
37267;SDS011;23154;52.542;13.362;2023-05-29T01:39:31;19.08;;;8.15;;
37267;SDS011;23154;52.542;13.362;2023-05-29T01:41:58;17.42;;;8.45;;
37267;SDS011;23154;52.542;13.362;2023-05-29T01:44:25;15.48;;;8.00;;
37267;SDS011;23154;52.542;13.362;2023-05-29T01:46:51;20.42;;;7.97;;
37267;SDS011;23154;52.542;13.362;2023-05-29T01:49:17;17.75;;;7.72;;
37267;SDS011;23154;52.542;13.362;2023-05-29T01:51:43;20.90;;;7.85;;
37267;SDS011;23154;52.542;13.362;2023-05-29T01:54:09;18.02;;;7.65;;
37267;SDS011;23154;52.542;13.362;2023-05-29T01:56:36;16.55;;;7.40;;
37267;SDS011;23154;52.542;13.362;2023-05-29T01:59:03;17.25;;;7.15;;
37267;SDS011;23154;52.542;13.362;2023-05-29T02:01:29;13.50;;;7.05;;
37267;SDS011;23154;52.542;13.362;2023-05-29T02:03:55;17.23;;;7.00;;
37267;SDS011;23154;52.542;13.362;2023-05-29T02:06:21;15.98;;;7.22;;
37267;SDS011;23154;52.542;13.362;2023-05-29T02:08:47;14.52;;;7.25;;
37267;SDS011;23154;52.542;13.362;2023-05-29T02:11:13;16.52;;;7.10;;
37267;SDS011;23154;52.542;13.362;2023-05-29T02:13:39;16.05;;;7.28;;
37267;SDS011;23154;52.542;13.362;2023-05-29T02:16:05;15.55;;;7.00;;
37267;SDS011;23154;52.542;13.362;2023-05-29T02:18:32;15.15;;;6.63;;
37267;SDS011;23154;52.542;13.362;2023-05-29T02:20:59;15.10;;;6.82;;
37267;SDS011;23154;52.542;13.362;2023-05-29T02:23:26;14.25;;;6.68;;
37267;SDS011;23154;52.542;13.362;2023-05-29T02:25:52;16.92;;;7.07;;
37267;SDS011;23154;52.542;13.362;2023-05-29T02:28:18;15.63;;;6.50;;
37267;SDS011;23154;52.542;13.362;2023-05-29T02:30:44;16.17;;;7.05;;
37267;SDS011;23154;52.542;13.362;2023-05-29T02:33:10;12.18;;;6.47;;
37267;SDS011;23154;52.542;13.362;2023-05-29T02:35:36;16.15;;;7.35;;
37267;SDS011;23154;52.542;13.362;2023-05-29T02:38:02;16.35;;;7.10;;
37267;SDS011;23154;52.542;13.362;2023-05-29T02:40:28;17.92;;;7.00;;
37267;SDS011;23154;52.542;13.362;2023-05-29T02:42:54;15.98;;;6.72;;
37267;SDS011;23154;52.542;13.362;2023-05-29T02:45:20;16.40;;;7.22;;
37267;SDS011;23154;52.542;13.362;2023-05-29T02:47:46;18.23;;;7.00;;
37267;SDS011;23154;52.542;13.362;2023-05-29T02:50:12;15.82;;;6.47;;
37267;SDS011;23154;52.542;13.362;2023-05-29T02:52:39;14.55;;;6.72;;
37267;SDS011;23154;52.542;13.362;2023-05-29T02:55:06;19.80;;;6.65;;
37267;SDS011;23154;52.542;13.362;2023-05-29T02:57:32;17.02;;;6.35;;
37267;SDS011;23154;52.542;13.362;2023-05-29T02:59:58;14.10;;;6.78;;
37267;SDS011;23154;52.542;13.362;2023-05-29T03:02:25;19.25;;;7.45;;
37267;SDS011;23154;52.542;13.362;2023-05-29T03:04:52;16.08;;;6.50;;
37267;SDS011;23154;52.542;13.362;2023-05-29T03:07:18;14.38;;;6.10;;
37267;SDS011;23154;52.542;13.362;2023-05-29T03:09:44;15.98;;;6.57;;
37267;SDS011;23154;52.542;13.362;2023-05-29T03:12:10;14.13;;;6.57;;
37267;SDS011;23154;52.542;13.362;2023-05-29T03:14:36;16.02;;;6.63;;
37267;SDS011;23154;52.542;13.362;2023-05-29T03:17:05;13.30;;;6.20;;
37267;SDS011;23154;52.542;13.362;2023-05-29T03:19:35;14.23;;;6.53;;
37267;SDS011;23154;52.542;13.362;2023-05-29T03:22:02;16.27;;;6.68;;
37267;SDS011;23154;52.542;13.362;2023-05-29T03:24:28;14.48;;;6.22;;
37267;SDS011;23154;52.542;13.362;2023-05-29T03:26:54;16.25;;;6.60;;
37267;SDS011;23154;52.542;13.362;2023-05-29T03:29:21;16.40;;;6.10;;
37267;SDS011;23154;52.542;13.362;2023-05-29T03:31:47;14.73;;;5.75;;
37267;SDS011;23154;52.542;13.362;2023-05-29T03:34:13;16.27;;;6.43;;
37267;SDS011;23154;52.542;13.362;2023-05-29T03:36:39;12.45;;;5.78;;
37267;SDS011;23154;52.542;13.362;2023-05-29T03:39:05;19.02;;;6.30;;
37267;SDS011;23154;52.542;13.362;2023-05-29T03:41:31;18.67;;;6.80;;
37267;SDS011;23154;52.542;13.362;2023-05-29T03:43:57;15.38;;;6.03;;
37267;SDS011;23154;52.542;13.362;2023-05-29T03:46:23;16.30;;;6.18;;
37267;SDS011;23154;52.542;13.362;2023-05-29T03:48:49;16.98;;;6.45;;
37267;SDS011;23154;52.542;13.362;2023-05-29T03:51:15;13.75;;;6.13;;
37267;SDS011;23154;52.542;13.362;2023-05-29T03:53:41;13.45;;;6.35;;
37267;SDS011;23154;52.542;13.362;2023-05-29T03:56:07;13.80;;;6.25;;
37267;SDS011;23154;52.542;13.362;2023-05-29T03:58:33;14.15;;;6.60;;
37267;SDS011;23154;52.542;13.362;2023-05-29T04:01:01;15.77;;;6.65;;
37267;SDS011;23154;52.542;13.362;2023-05-29T04:03:27;16.27;;;7.00;;
37267;SDS011;23154;52.542;13.362;2023-05-29T04:05:55;14.30;;;6.63;;
37267;SDS011;23154;52.542;13.362;2023-05-29T04:08:21;16.52;;;6.97;;
37267;SDS011;23154;52.542;13.362;2023-05-29T04:10:47;14.65;;;6.85;;
37267;SDS011;23154;52.542;13.362;2023-05-29T04:13:13;13.50;;;6.10;;
37267;SDS011;23154;52.542;13.362;2023-05-29T04:15:39;18.15;;;7.57;;
37267;SDS011;23154;52.542;13.362;2023-05-29T04:18:07;13.48;;;6.32;;
37267;SDS011;23154;52.542;13.362;2023-05-29T04:20:33;14.95;;;6.70;;
37267;SDS011;23154;52.542;13.362;2023-05-29T04:22:59;13.60;;;6.25;;
37267;SDS011;23154;52.542;13.362;2023-05-29T04:25:25;14.38;;;6.63;;
37267;SDS011;23154;52.542;13.362;2023-05-29T04:27:51;14.35;;;6.25;;
37267;SDS011;23154;52.542;13.362;2023-05-29T04:30:17;12.90;;;6.50;;
37267;SDS011;23154;52.542;13.362;2023-05-29T04:32:43;17.65;;;6.90;;
37267;SDS011;23154;52.542;13.362;2023-05-29T04:35:09;14.63;;;7.00;;
37267;SDS011;23154;52.542;13.362;2023-05-29T04:37:35;14.07;;;6.72;;
37267;SDS011;23154;52.542;13.362;2023-05-29T04:40:05;15.77;;;7.35;;
37267;SDS011;23154;52.542;13.362;2023-05-29T04:45:01;15.93;;;6.88;;
37267;SDS011;23154;52.542;13.362;2023-05-29T04:47:28;16.92;;;7.05;;
37267;SDS011;23154;52.542;13.362;2023-05-29T04:49:57;14.88;;;7.28;;
37267;SDS011;23154;52.542;13.362;2023-05-29T04:52:24;13.13;;;6.70;;
37267;SDS011;23154;52.542;13.362;2023-05-29T04:54:50;15.30;;;7.15;;
37267;SDS011;23154;52.542;13.362;2023-05-29T04:57:17;17.23;;;7.20;;
37267;SDS011;23154;52.542;13.362;2023-05-29T04:59:43;14.13;;;7.15;;
37267;SDS011;23154;52.542;13.362;2023-05-29T05:02:09;19.05;;;7.20;;
37267;SDS011;23154;52.542;13.362;2023-05-29T05:04:35;19.70;;;7.88;;
37267;SDS011;23154;52.542;13.362;2023-05-29T05:07:01;14.77;;;7.20;;
37267;SDS011;23154;52.542;13.362;2023-05-29T05:09:28;17.05;;;7.45;;
37267;SDS011;23154;52.542;13.362;2023-05-29T05:11:54;15.77;;;6.97;;
37267;SDS011;23154;52.542;13.362;2023-05-29T05:14:22;16.60;;;7.10;;
37267;SDS011;23154;52.542;13.362;2023-05-29T05:16:48;13.98;;;7.15;;
37267;SDS011;23154;52.542;13.362;2023-05-29T05:19:14;14.52;;;7.03;;
37267;SDS011;23154;52.542;13.362;2023-05-29T05:21:40;14.25;;;7.55;;
37267;SDS011;23154;52.542;13.362;2023-05-29T05:24:06;17.13;;;6.95;;
37267;SDS011;23154;52.542;13.362;2023-05-29T05:26:32;14.07;;;6.68;;
37267;SDS011;23154;52.542;13.362;2023-05-29T05:28:58;15.30;;;7.57;;
37267;SDS011;23154;52.542;13.362;2023-05-29T05:31:25;14.98;;;7.10;;
37267;SDS011;23154;52.542;13.362;2023-05-29T05:33:51;14.70;;;7.30;;
37267;SDS011;23154;52.542;13.362;2023-05-29T05:36:17;13.93;;;6.82;;
37267;SDS011;23154;52.542;13.362;2023-05-29T05:38:43;14.23;;;7.03;;
37267;SDS011;23154;52.542;13.362;2023-05-29T05:41:09;13.55;;;7.30;;
37267;SDS011;23154;52.542;13.362;2023-05-29T05:43:35;13.75;;;7.13;;
37267;SDS011;23154;52.542;13.362;2023-05-29T05:46:01;15.02;;;7.47;;
37267;SDS011;23154;52.542;13.362;2023-05-29T05:48:27;13.60;;;7.22;;
37267;SDS011;23154;52.542;13.362;2023-05-29T05:50:53;14.02;;;6.70;;
37267;SDS011;23154;52.542;13.362;2023-05-29T05:53:19;14.38;;;7.05;;
37267;SDS011;23154;52.542;13.362;2023-05-29T05:55:46;14.90;;;6.70;;
37267;SDS011;23154;52.542;13.362;2023-05-29T05:58:12;15.48;;;7.28;;
37267;SDS011;23154;52.542;13.362;2023-05-29T06:00:39;13.82;;;7.05;;
37267;SDS011;23154;52.542;13.362;2023-05-29T06:03:05;16.73;;;7.05;;
37267;SDS011;23154;52.542;13.362;2023-05-29T06:05:31;12.05;;;6.50;;
37267;SDS011;23154;52.542;13.362;2023-05-29T06:07:59;10.82;;;6.43;;
37267;SDS011;23154;52.542;13.362;2023-05-29T06:10:25;14.88;;;7.00;;
37267;SDS011;23154;52.542;13.362;2023-05-29T06:12:51;12.30;;;6.90;;
37267;SDS011;23154;52.542;13.362;2023-05-29T06:15:17;12.98;;;6.55;;
37267;SDS011;23154;52.542;13.362;2023-05-29T06:17:43;12.65;;;6.90;;
37267;SDS011;23154;52.542;13.362;2023-05-29T06:20:10;15.50;;;7.40;;
37267;SDS011;23154;52.542;13.362;2023-05-29T06:22:39;12.48;;;6.85;;
37267;SDS011;23154;52.542;13.362;2023-05-29T06:25:05;13.65;;;7.10;;
37267;SDS011;23154;52.542;13.362;2023-05-29T06:27:31;13.95;;;7.03;;
37267;SDS011;23154;52.542;13.362;2023-05-29T06:29:57;14.57;;;7.75;;
37267;SDS011;23154;52.542;13.362;2023-05-29T06:32:23;13.20;;;7.40;;
37267;SDS011;23154;52.542;13.362;2023-05-29T06:34:49;12.75;;;7.10;;
37267;SDS011;23154;52.542;13.362;2023-05-29T06:37:15;12.32;;;7.32;;
37267;SDS011;23154;52.542;13.362;2023-05-29T06:39:44;12.60;;;7.07;;
37267;SDS011;23154;52.542;13.362;2023-05-29T06:42:10;14.13;;;7.70;;
37267;SDS011;23154;52.542;13.362;2023-05-29T06:44:36;13.88;;;7.20;;
37267;SDS011;23154;52.542;13.362;2023-05-29T06:47:02;14.23;;;7.40;;
37267;SDS011;23154;52.542;13.362;2023-05-29T06:49:28;12.05;;;7.10;;
37267;SDS011;23154;52.542;13.362;2023-05-29T06:51:54;11.25;;;6.90;;
37267;SDS011;23154;52.542;13.362;2023-05-29T06:54:20;15.05;;;7.38;;
37267;SDS011;23154;52.542;13.362;2023-05-29T06:56:46;13.70;;;7.57;;
37267;SDS011;23154;52.542;13.362;2023-05-29T06:59:12;15.30;;;7.57;;
37267;SDS011;23154;52.542;13.362;2023-05-29T07:01:38;13.30;;;7.28;;
37267;SDS011;23154;52.542;13.362;2023-05-29T07:04:04;13.48;;;7.50;;
37267;SDS011;23154;52.542;13.362;2023-05-29T07:06:31;13.07;;;7.68;;
37267;SDS011;23154;52.542;13.362;2023-05-29T07:08:58;13.15;;;7.70;;
37267;SDS011;23154;52.542;13.362;2023-05-29T07:11:24;15.75;;;7.95;;
37267;SDS011;23154;52.542;13.362;2023-05-29T07:13:51;13.93;;;8.10;;
37267;SDS011;23154;52.542;13.362;2023-05-29T07:16:17;13.30;;;7.63;;
37267;SDS011;23154;52.542;13.362;2023-05-29T07:18:43;13.23;;;7.70;;
37267;SDS011;23154;52.542;13.362;2023-05-29T07:21:09;14.65;;;8.15;;
37267;SDS011;23154;52.542;13.362;2023-05-29T07:23:36;12.25;;;7.72;;
37267;SDS011;23154;52.542;13.362;2023-05-29T07:26:02;11.40;;;7.60;;
37267;SDS011;23154;52.542;13.362;2023-05-29T07:28:28;12.50;;;7.55;;
37267;SDS011;23154;52.542;13.362;2023-05-29T07:30:54;13.40;;;7.97;;
37267;SDS011;23154;52.542;13.362;2023-05-29T07:33:20;12.25;;;7.65;;
37267;SDS011;23154;52.542;13.362;2023-05-29T07:35:46;13.38;;;7.90;;
37267;SDS011;23154;52.542;13.362;2023-05-29T07:38:12;14.80;;;7.82;;
37267;SDS011;23154;52.542;13.362;2023-05-29T07:40:38;14.57;;;8.07;;
37267;SDS011;23154;52.542;13.362;2023-05-29T07:43:04;15.48;;;7.90;;
37267;SDS011;23154;52.542;13.362;2023-05-29T07:45:30;14.60;;;7.93;;
37267;SDS011;23154;52.542;13.362;2023-05-29T07:47:56;12.48;;;7.90;;
37267;SDS011;23154;52.542;13.362;2023-05-29T07:50:22;14.10;;;7.90;;
37267;SDS011;23154;52.542;13.362;2023-05-29T07:52:48;15.65;;;8.02;;
37267;SDS011;23154;52.542;13.362;2023-05-29T07:55:14;12.93;;;7.88;;
37267;SDS011;23154;52.542;13.362;2023-05-29T07:57:40;13.70;;;8.00;;
37267;SDS011;23154;52.542;13.362;2023-05-29T08:00:07;12.48;;;7.90;;
37267;SDS011;23154;52.542;13.362;2023-05-29T08:02:36;13.25;;;7.82;;
37267;SDS011;23154;52.542;13.362;2023-05-29T08:05:03;13.57;;;7.82;;
37267;SDS011;23154;52.542;13.362;2023-05-29T08:07:29;13.85;;;8.07;;
37267;SDS011;23154;52.542;13.362;2023-05-29T08:09:55;12.57;;;7.88;;
37267;SDS011;23154;52.542;13.362;2023-05-29T08:12:21;12.85;;;7.75;;
37267;SDS011;23154;52.542;13.362;2023-05-29T08:14:47;12.88;;;8.27;;
37267;SDS011;23154;52.542;13.362;2023-05-29T08:17:14;14.65;;;8.00;;
37267;SDS011;23154;52.542;13.362;2023-05-29T08:19:40;14.45;;;8.20;;
37267;SDS011;23154;52.542;13.362;2023-05-29T08:22:06;11.68;;;7.85;;
37267;SDS011;23154;52.542;13.362;2023-05-29T08:24:32;12.65;;;7.78;;
37267;SDS011;23154;52.542;13.362;2023-05-29T08:26:58;16.52;;;8.27;;
37267;SDS011;23154;52.542;13.362;2023-05-29T08:29:24;12.15;;;7.60;;
37267;SDS011;23154;52.542;13.362;2023-05-29T08:31:51;14.35;;;7.95;;
37267;SDS011;23154;52.542;13.362;2023-05-29T08:34:17;13.48;;;8.23;;
37267;SDS011;23154;52.542;13.362;2023-05-29T08:36:43;12.75;;;8.10;;
37267;SDS011;23154;52.542;13.362;2023-05-29T08:39:10;14.95;;;7.95;;
37267;SDS011;23154;52.542;13.362;2023-05-29T08:44:05;15.60;;;8.38;;
37267;SDS011;23154;52.542;13.362;2023-05-29T08:46:33;13.88;;;7.55;;
37267;SDS011;23154;52.542;13.362;2023-05-29T08:48:59;12.52;;;7.63;;
37267;SDS011;23154;52.542;13.362;2023-05-29T08:51:27;13.73;;;8.43;;
37267;SDS011;23154;52.542;13.362;2023-05-29T08:53:57;14.73;;;8.13;;
37267;SDS011;23154;52.542;13.362;2023-05-29T08:56:23;14.50;;;8.50;;
37267;SDS011;23154;52.542;13.362;2023-05-29T08:58:49;14.32;;;8.40;;
37267;SDS011;23154;52.542;13.362;2023-05-29T09:01:17;14.80;;;8.55;;
37267;SDS011;23154;52.542;13.362;2023-05-29T09:03:45;12.20;;;8.10;;
37267;SDS011;23154;52.542;13.362;2023-05-29T09:06:11;13.35;;;8.20;;
37267;SDS011;23154;52.542;13.362;2023-05-29T09:08:37;15.20;;;9.60;;
37267;SDS011;23154;52.542;13.362;2023-05-29T09:11:03;13.68;;;8.50;;
37267;SDS011;23154;52.542;13.362;2023-05-29T09:13:30;14.00;;;7.72;;
37267;SDS011;23154;52.542;13.362;2023-05-29T09:15:59;14.50;;;8.00;;
37267;SDS011;23154;52.542;13.362;2023-05-29T09:18:28;14.60;;;8.40;;
37267;SDS011;23154;52.542;13.362;2023-05-29T09:20:54;13.82;;;8.15;;
37267;SDS011;23154;52.542;13.362;2023-05-29T09:23:20;13.18;;;8.25;;
37267;SDS011;23154;52.542;13.362;2023-05-29T09:25:51;15.50;;;8.80;;
37267;SDS011;23154;52.542;13.362;2023-05-29T09:28:18;14.32;;;8.85;;
37267;SDS011;23154;52.542;13.362;2023-05-29T09:30:44;13.23;;;8.45;;
37267;SDS011;23154;52.542;13.362;2023-05-29T09:33:13;15.18;;;8.73;;
37267;SDS011;23154;52.542;13.362;2023-05-29T09:35:43;13.45;;;8.30;;
37267;SDS011;23154;52.542;13.362;2023-05-29T09:38:09;15.68;;;8.60;;
37267;SDS011;23154;52.542;13.362;2023-05-29T09:40:37;12.98;;;8.38;;
37267;SDS011;23154;52.542;13.362;2023-05-29T09:45:32;14.15;;;8.60;;
37267;SDS011;23154;52.542;13.362;2023-05-29T09:47:58;14.80;;;8.65;;
37267;SDS011;23154;52.542;13.362;2023-05-29T09:50:26;16.00;;;8.48;;
37267;SDS011;23154;52.542;13.362;2023-05-29T09:52:53;14.40;;;8.57;;
37267;SDS011;23154;52.542;13.362;2023-05-29T09:55:23;15.02;;;8.80;;
37267;SDS011;23154;52.542;13.362;2023-05-29T09:57:51;17.55;;;10.48;;
37267;SDS011;23154;52.542;13.362;2023-05-29T10:00:18;29.20;;;14.50;;
37267;SDS011;23154;52.542;13.362;2023-05-29T10:02:44;15.25;;;8.82;;
37267;SDS011;23154;52.542;13.362;2023-05-29T10:05:10;13.57;;;8.57;;
37267;SDS011;23154;52.542;13.362;2023-05-29T10:07:40;13.57;;;8.63;;
37267;SDS011;23154;52.542;13.362;2023-05-29T10:10:09;15.02;;;8.73;;
37267;SDS011;23154;52.542;13.362;2023-05-29T10:12:42;16.50;;;8.63;;
37267;SDS011;23154;52.542;13.362;2023-05-29T10:15:13;14.32;;;8.95;;
37267;SDS011;23154;52.542;13.362;2023-05-29T10:17:44;14.45;;;9.00;;
37267;SDS011;23154;52.542;13.362;2023-05-29T10:20:13;16.27;;;8.80;;
37267;SDS011;23154;52.542;13.362;2023-05-29T10:22:42;13.27;;;8.60;;
37267;SDS011;23154;52.542;13.362;2023-05-29T10:25:11;14.48;;;9.00;;
37267;SDS011;23154;52.542;13.362;2023-05-29T10:27:38;12.77;;;8.10;;
37267;SDS011;23154;52.542;13.362;2023-05-29T10:30:06;13.90;;;8.43;;
37267;SDS011;23154;52.542;13.362;2023-05-29T10:40:04;14.65;;;9.10;;
37267;SDS011;23154;52.542;13.362;2023-05-29T10:42:43;13.15;;;8.77;;
37267;SDS011;23154;52.542;13.362;2023-05-29T10:45:10;14.05;;;8.85;;
37267;SDS011;23154;52.542;13.362;2023-05-29T10:47:37;15.18;;;9.75;;
37267;SDS011;23154;52.542;13.362;2023-05-29T10:50:04;16.08;;;9.27;;
37267;SDS011;23154;52.542;13.362;2023-05-29T10:52:33;13.93;;;9.35;;
37267;SDS011;23154;52.542;13.362;2023-05-29T10:54:59;14.57;;;9.30;;
37267;SDS011;23154;52.542;13.362;2023-05-29T10:57:28;14.13;;;8.70;;
37267;SDS011;23154;52.542;13.362;2023-05-29T11:00:07;14.85;;;8.88;;
37267;SDS011;23154;52.542;13.362;2023-05-29T11:02:38;13.65;;;8.70;;
37267;SDS011;23154;52.542;13.362;2023-05-29T11:05:20;14.13;;;8.88;;
37267;SDS011;23154;52.542;13.362;2023-05-29T11:07:52;14.10;;;8.73;;
37267;SDS011;23154;52.542;13.362;2023-05-29T11:10:40;13.00;;;8.85;;
37267;SDS011;23154;52.542;13.362;2023-05-29T11:13:05;13.02;;;8.40;;
37267;SDS011;23154;52.542;13.362;2023-05-29T11:15:32;15.27;;;9.25;;
37267;SDS011;23154;52.542;13.362;2023-05-29T11:18:08;13.63;;;8.95;;
37267;SDS011;23154;52.542;13.362;2023-05-29T11:20:46;14.00;;;8.70;;
37267;SDS011;23154;52.542;13.362;2023-05-29T11:23:16;14.52;;;8.98;;
37267;SDS011;23154;52.542;13.362;2023-05-29T11:25:43;15.57;;;9.00;;
37267;SDS011;23154;52.542;13.362;2023-05-29T11:28:10;14.35;;;9.45;;
37267;SDS011;23154;52.542;13.362;2023-05-29T11:30:46;13.68;;;8.90;;
37267;SDS011;23154;52.542;13.362;2023-05-29T11:33:19;15.63;;;9.13;;
37267;SDS011;23154;52.542;13.362;2023-05-29T11:35:46;15.05;;;8.77;;
37267;SDS011;23154;52.542;13.362;2023-05-29T11:38:14;14.57;;;9.27;;
37267;SDS011;23154;52.542;13.362;2023-05-29T11:40:41;15.02;;;9.20;;
37267;SDS011;23154;52.542;13.362;2023-05-29T11:43:07;14.05;;;9.30;;
37267;SDS011;23154;52.542;13.362;2023-05-29T11:45:33;15.45;;;9.20;;
37267;SDS011;23154;52.542;13.362;2023-05-29T11:48:00;13.48;;;8.93;;
37267;SDS011;23154;52.542;13.362;2023-05-29T11:50:27;12.95;;;9.02;;
37267;SDS011;23154;52.542;13.362;2023-05-29T11:52:54;18.52;;;9.43;;
37267;SDS011;23154;52.542;13.362;2023-05-29T11:55:21;29.48;;;9.60;;
37267;SDS011;23154;52.542;13.362;2023-05-29T11:57:47;13.98;;;9.00;;
37267;SDS011;23154;52.542;13.362;2023-05-29T12:00:17;14.55;;;8.70;;
37267;SDS011;23154;52.542;13.362;2023-05-29T12:02:44;14.27;;;8.70;;
37267;SDS011;23154;52.542;13.362;2023-05-29T12:05:12;13.57;;;8.77;;
37267;SDS011;23154;52.542;13.362;2023-05-29T12:08:01;15.05;;;9.25;;
37267;SDS011;23154;52.542;13.362;2023-05-29T12:10:29;15.35;;;9.57;;
37267;SDS011;23154;52.542;13.362;2023-05-29T12:12:58;18.92;;;9.35;;
37267;SDS011;23154;52.542;13.362;2023-05-29T12:15:27;15.20;;;9.18;;
37267;SDS011;23154;52.542;13.362;2023-05-29T12:17:54;16.30;;;9.20;;
37267;SDS011;23154;52.542;13.362;2023-05-29T12:20:25;14.20;;;9.07;;
37267;SDS011;23154;52.542;13.362;2023-05-29T12:22:58;16.25;;;9.43;;
37267;SDS011;23154;52.542;13.362;2023-05-29T12:25:26;15.00;;;9.65;;
37267;SDS011;23154;52.542;13.362;2023-05-29T12:27:52;14.63;;;9.60;;
37267;SDS011;23154;52.542;13.362;2023-05-29T12:30:21;16.35;;;9.80;;
37267;SDS011;23154;52.542;13.362;2023-05-29T12:32:48;18.00;;;9.85;;
37267;SDS011;23154;52.542;13.362;2023-05-29T12:42:54;13.63;;;8.80;;
37267;SDS011;23154;52.542;13.362;2023-05-29T12:45:27;14.38;;;9.02;;
37267;SDS011;23154;52.542;13.362;2023-05-29T12:50:26;14.95;;;9.90;;
37267;SDS011;23154;52.542;13.362;2023-05-29T12:52:57;14.43;;;9.40;;
37267;SDS011;23154;52.542;13.362;2023-05-29T12:55:24;15.40;;;9.70;;
37267;SDS011;23154;52.542;13.362;2023-05-29T12:57:51;15.45;;;8.82;;
37267;SDS011;23154;52.542;13.362;2023-05-29T13:00:18;15.05;;;10.00;;
37267;SDS011;23154;52.542;13.362;2023-05-29T13:02:45;15.20;;;9.60;;
37267;SDS011;23154;52.542;13.362;2023-05-29T13:05:12;13.73;;;9.43;;
37267;SDS011;23154;52.542;13.362;2023-05-29T13:07:39;13.98;;;9.05;;
37267;SDS011;23154;52.542;13.362;2023-05-29T13:10:07;14.57;;;9.63;;
37267;SDS011;23154;52.542;13.362;2023-05-29T13:12:38;14.85;;;10.00;;
37267;SDS011;23154;52.542;13.362;2023-05-29T13:15:11;15.73;;;9.80;;
37267;SDS011;23154;52.542;13.362;2023-05-29T13:17:39;16.05;;;10.18;;
37267;SDS011;23154;52.542;13.362;2023-05-29T13:20:09;16.02;;;9.48;;
37267;SDS011;23154;52.542;13.362;2023-05-29T13:22:37;14.80;;;10.07;;
37267;SDS011;23154;52.542;13.362;2023-05-29T13:25:07;16.60;;;9.80;;
37267;SDS011;23154;52.542;13.362;2023-05-29T13:27:37;14.27;;;9.98;;
37267;SDS011;23154;52.542;13.362;2023-05-29T13:30:05;14.32;;;10.00;;
37267;SDS011;23154;52.542;13.362;2023-05-29T13:32:32;16.65;;;9.80;;
37267;SDS011;23154;52.542;13.362;2023-05-29T13:34:59;15.95;;;10.05;;
37267;SDS011;23154;52.542;13.362;2023-05-29T13:37:26;15.25;;;9.85;;
37267;SDS011;23154;52.542;13.362;2023-05-29T13:39:56;14.82;;;9.80;;
37267;SDS011;23154;52.542;13.362;2023-05-29T13:42:22;15.57;;;10.32;;
37267;SDS011;23154;52.542;13.362;2023-05-29T13:44:49;17.80;;;10.30;;
37267;SDS011;23154;52.542;13.362;2023-05-29T13:47:15;16.33;;;9.77;;
37267;SDS011;23154;52.542;13.362;2023-05-29T13:49:42;15.48;;;10.25;;
37267;SDS011;23154;52.542;13.362;2023-05-29T13:52:08;16.10;;;10.23;;
37267;SDS011;23154;52.542;13.362;2023-05-29T13:54:35;16.73;;;10.50;;
37267;SDS011;23154;52.542;13.362;2023-05-29T13:57:02;14.43;;;9.50;;
37267;SDS011;23154;52.542;13.362;2023-05-29T13:59:30;15.30;;;9.75;;
37267;SDS011;23154;52.542;13.362;2023-05-29T14:01:57;16.67;;;9.80;;
37267;SDS011;23154;52.542;13.362;2023-05-29T14:04:23;16.42;;;9.80;;
37267;SDS011;23154;52.542;13.362;2023-05-29T14:06:49;16.33;;;10.02;;
37267;SDS011;23154;52.542;13.362;2023-05-29T14:09:15;16.05;;;10.30;;
37267;SDS011;23154;52.542;13.362;2023-05-29T14:11:47;13.77;;;9.18;;
37267;SDS011;23154;52.542;13.362;2023-05-29T14:14:13;14.57;;;9.30;;
37267;SDS011;23154;52.542;13.362;2023-05-29T14:16:40;15.43;;;9.60;;
37267;SDS011;23154;52.542;13.362;2023-05-29T14:19:06;16.15;;;9.50;;
37267;SDS011;23154;52.542;13.362;2023-05-29T14:21:32;15.27;;;10.15;;
37267;SDS011;23154;52.542;13.362;2023-05-29T14:23:58;15.02;;;9.90;;
37267;SDS011;23154;52.542;13.362;2023-05-29T14:26:24;16.10;;;9.95;;
37267;SDS011;23154;52.542;13.362;2023-05-29T14:28:51;15.40;;;9.82;;
37267;SDS011;23154;52.542;13.362;2023-05-29T14:31:17;15.77;;;10.15;;
37267;SDS011;23154;52.542;13.362;2023-05-29T14:33:43;13.15;;;9.13;;
37267;SDS011;23154;52.542;13.362;2023-05-29T14:36:09;14.60;;;9.40;;
37267;SDS011;23154;52.542;13.362;2023-05-29T14:38:35;15.02;;;9.48;;
37267;SDS011;23154;52.542;13.362;2023-05-29T14:41:01;17.45;;;9.48;;
37267;SDS011;23154;52.542;13.362;2023-05-29T14:43:27;15.95;;;9.40;;
37267;SDS011;23154;52.542;13.362;2023-05-29T14:45:53;14.40;;;9.38;;
37267;SDS011;23154;52.542;13.362;2023-05-29T14:48:19;14.70;;;9.70;;